6B0

Middlebury State Airport

Middlebury, Vermont, USA
METAR K6B0 200155Z AUTO 18008G16KT 150V210 10SM CLR 12/03 A2977 RMK AO2 T01170025
Observed Flight Rules
Oct-20 @ 01:55 UTC (16 minutes ago) Visual Flight Rules
Wind Visibility Clouds
180° at 8 knots
 Gusting to 16 knots
10 miles
  • Clear skies
Temperatures Readings
Current 12°C / 54°F
Dewpoint 3°C / 37°F
Humidity 54%
Altimeter 29.77" Hg
Pressure 1008 hPa
Elevation 149
METAR K6B0 200155Z AUTO 18008G16KT 150V210 10SM CLR 12/03 A2977 RMK AO2 T01170025
Observed Flight Rules
Oct-20 @ 01:55 UTC
(16 minutes ago)
VFR
Wind Visibility
180° at 8 knots
 Gusting to 16 knots
10 miles
Clouds
  • Clear skies
Temperature Dewpoint
12°C / 54°F 3°C / 37°F
Humidity Altimeter Pressure
54% 29.77" Hg 1008 hPa